Pagrindinis puslapis
METAR-TAF:

METAR-TAF

Oro uostai :

Talara, Peru

platuma: 04-34S, ilguma: 081-15W, Aukštis: 85 m

Dabartinis oras

Ataskaita buvo paskelbta 30 minutes, ne 13:00 UTC
Vėjas 15 kt iš Pietryčių
Temperatūra 26°C
Drėgmė 70%
Slėgis 1014 hPa
Matomumas 10 km arba daugiau
nėra debesų žemiau 1500 m ir nėra kamuolinių lietaus debesų

METAR: SPYL 281300Z 13015KT CAVOK 26/20 Q1014 RMK BIRD HAZARD RWY 17/35 PP000

Laikas: 08:30 (13:30 UTC)

Prognozė

Ataskaita buvo paskelbta 2 valandos ir 20 minutes, ne 11:10 UTC
Prognozė galioja nuo 28 metu 12 UTC su 29 metu 12 UTC
Vėjas 12 kt iš Pietų/Pietryčių
Matomumas 10 km arba daugiau
nėra debesų žemiau 1500 m ir nėra kamuolinių lietaus debesų
Nuo 28 metu 1700 UTC
Vėjas 10 kt iš Vakarų
Matomumas 10 km arba daugiau
nėra debesų žemiau 1500 m ir nėra kamuolinių lietaus debesų

TAF: SPYL 281110Z 2812/2912 15012KT CAVOK TX33/2819Z TN23/2911Z FM281700 26010KT CAVOK

Orai ataskaitas ir orų prognozės (METAR, TAF).

turimą stotys yra geltonos ir raudonos taškus žemėlapyje.

Perkelti pele per norėdami pamatyti stoties vardą.

Tada spustelėkite, norėdami matyti oro stebėjimo ir prognozės.

Norėdami pakeisti žemėlapį: spustelėkite ant žalios mygtukų su juodo kryžiaus žemyn,; žalią mygtuką su brūkšneliu, jei norite nutolinti; arba žalių rodyklių gretimoms žemėlapius.


METAR-TAF: